createdAt,value
2023-02-06T10:51:43.441Z,100.00
2023-02-06T10:54:40.362Z,100.00
2023-02-06T10:57:21.830Z,100.00
2023-02-06T10:59:53.879Z,100.00
2023-02-06T11:03:06.232Z,100.00
2023-02-06T11:05:35.203Z,100.00
2023-02-06T11:08:39.096Z,100.00
2023-02-06T11:11:29.682Z,100.00
2023-02-06T11:14:38.784Z,100.00
2023-02-06T11:17:06.199Z,100.00
2023-02-06T11:19:44.474Z,100.00
2023-02-06T11:22:28.045Z,100.00
2023-02-06T11:25:18.051Z,100.00
2023-02-06T11:27:46.458Z,100.00
2023-02-06T11:30:39.860Z,100.00
2023-02-06T11:33:54.223Z,100.00
2023-02-06T11:36:37.462Z,100.00
2023-02-06T11:39:39.468Z,100.00
2023-02-06T11:42:13.895Z,100.00
2023-02-06T11:44:45.348Z,100.00
2023-02-06T11:47:37.736Z,100.00
2023-02-06T11:50:34.200Z,100.00
2023-02-06T11:53:18.408Z,100.00
2023-02-06T11:56:03.662Z,100.00
2023-02-06T11:58:33.543Z,100.00
2023-02-06T12:01:07.063Z,100.00
2023-02-06T12:03:39.066Z,100.00
2023-02-06T12:06:30.208Z,100.00
2023-02-06T12:09:09.766Z,100.00
2023-02-06T12:12:16.570Z,100.00
2023-02-06T12:14:58.326Z,100.00
2023-02-06T12:17:42.385Z,100.00
2023-02-06T12:20:26.523Z,100.00
2023-02-06T12:23:27.449Z,100.00
2023-02-06T12:26:21.703Z,100.00
2023-02-06T12:29:20.006Z,100.00
2023-02-06T12:32:24.604Z,100.00
2023-02-06T12:35:14.493Z,100.00
2023-02-06T12:37:55.330Z,100.00
2023-02-06T12:41:43.925Z,100.00
2023-02-06T12:44:59.037Z,100.00
2023-02-06T12:48:12.355Z,100.00
2023-02-06T12:51:09.321Z,100.00
2023-02-06T12:54:30.356Z,100.00
2023-02-06T12:57:19.927Z,100.00
2023-02-06T13:00:20.601Z,100.00
2023-02-06T13:03:16.880Z,100.00
2023-02-06T13:06:18.614Z,100.00
2023-02-06T13:09:02.492Z,100.00
2023-02-06T13:11:42.562Z,100.00
2023-02-06T13:14:30.106Z,100.00
2023-02-06T13:17:16.683Z,100.00
2023-02-06T13:19:43.795Z,100.00
2023-02-06T13:22:11.000Z,100.00
2023-02-06T13:24:51.084Z,100.00
2023-02-06T13:27:39.280Z,100.00
2023-02-06T13:30:30.646Z,100.00
2023-02-06T13:33:15.863Z,100.00
2023-02-06T13:36:16.733Z,100.00
2023-02-06T13:38:44.090Z,100.00
2023-02-06T13:41:14.365Z,100.00
2023-02-06T13:44:06.697Z,100.00
2023-02-06T13:47:59.009Z,100.00
2023-02-06T13:51:20.573Z,100.00
2023-02-06T13:54:58.645Z,100.00
2023-02-06T13:58:30.821Z,100.00
2023-02-06T14:00:59.987Z,100.00
2023-02-06T14:03:34.488Z,100.00
2023-02-06T14:06:20.818Z,100.00
2023-02-06T14:10:06.311Z,100.00
2023-02-06T14:13:42.550Z,100.00
2023-02-06T14:16:49.710Z,100.00
2023-02-06T14:20:28.644Z,100.00
2023-02-06T14:23:20.892Z,100.00
2023-02-06T14:26:56.467Z,100.00
2023-02-06T14:30:12.863Z,100.00
2023-02-06T14:33:55.245Z,100.00
2023-02-06T14:37:17.227Z,100.00
2023-02-06T14:40:04.701Z,100.00
2023-02-06T14:42:41.201Z,100.00
2023-02-06T14:45:42.020Z,100.00
2023-02-06T14:48:55.076Z,100.00
2023-02-06T14:51:41.400Z,100.00
2023-02-06T14:54:38.474Z,100.00
2023-02-06T14:57:30.140Z,100.00
2023-02-06T15:00:20.737Z,100.00
2023-02-06T15:03:24.615Z,100.00
2023-02-06T15:06:08.957Z,100.00
2023-02-06T15:08:37.761Z,100.00
2023-02-06T15:11:24.093Z,99.58
2023-02-06T15:13:56.621Z,99.52
2023-02-06T15:16:23.938Z,97.39
2023-02-06T15:18:51.263Z,97.28
2023-02-06T15:21:21.193Z,98.63
2023-02-06T15:24:17.260Z,97.39
2023-02-06T15:27:31.806Z,94.77
2023-02-06T15:30:01.063Z,97.66
2023-02-06T15:32:54.964Z,96.03
2023-02-06T15:35:39.507Z,98.76
2023-02-06T15:38:14.471Z,99.42
2023-02-06T15:40:49.831Z,97.11
2023-02-06T15:43:25.413Z,98.55
2023-02-06T15:46:04.437Z,98.93
2023-02-06T15:48:51.421Z,99.08
2023-02-06T15:51:49.540Z,98.12
2023-02-06T15:54:26.190Z,96.77
2023-02-06T15:57:40.316Z,97.07
2023-02-06T16:00:31.821Z,95.88
2023-02-06T16:03:18.395Z,95.31
2023-02-06T16:05:47.268Z,94.45
2023-02-06T16:08:35.959Z,92.75
2023-02-06T16:11:29.821Z,92.25
2023-02-06T16:13:58.723Z,92.84
2023-02-06T16:16:28.765Z,91.85
2023-02-06T16:18:58.600Z,90.47
2023-02-06T16:21:30.861Z,91.15
2023-02-06T16:24:04.027Z,90.28
2023-02-06T16:26:49.726Z,89.61
2023-02-06T16:29:29.277Z,89.49
2023-02-06T16:32:22.345Z,88.95
2023-02-06T16:34:49.727Z,88.26
2023-02-06T16:37:29.346Z,87.52
2023-02-06T16:39:56.790Z,88.15
2023-02-06T16:42:34.809Z,88.86
2023-02-06T16:45:26.886Z,87.41
2023-02-06T16:47:55.280Z,88.65
2023-02-06T16:50:22.978Z,89.63
2023-02-06T16:52:55.737Z,88.20
2023-02-06T16:55:28.829Z,89.15
2023-02-06T16:58:01.033Z,88.21
2023-02-06T17:00:32.085Z,89.41
2023-02-06T17:02:59.912Z,89.30
2023-02-06T17:05:29.413Z,88.82
2023-02-06T17:07:56.864Z,88.31
2023-02-06T17:10:27.081Z,88.10
2023-02-06T17:12:54.741Z,89.54
2023-02-06T17:15:22.244Z,90.07
2023-02-06T17:17:49.633Z,90.20
2023-02-06T17:20:39.632Z,91.70
2023-02-06T17:23:10.905Z,91.77
2023-02-06T17:25:44.968Z,92.24
2023-02-06T17:28:18.798Z,92.12
2023-02-06T17:30:48.812Z,92.83
2023-02-06T17:33:16.581Z,93.08
2023-02-06T17:35:45.970Z,92.38
2023-02-06T17:38:13.471Z,93.18
2023-02-06T17:40:41.323Z,94.04
2023-02-06T17:43:08.917Z,94.85
2023-02-06T17:45:39.668Z,94.45
2023-02-06T17:48:08.634Z,95.73
2023-02-06T17:50:38.016Z,95.14
2023-02-06T17:53:07.139Z,96.28
2023-02-06T17:55:36.790Z,95.04
2023-02-06T17:58:05.017Z,94.00
2023-02-06T18:00:32.978Z,95.33
2023-02-06T18:03:00.964Z,94.42
2023-02-06T18:05:28.902Z,96.10
2023-02-06T18:07:56.227Z,96.43
2023-02-06T18:10:25.678Z,96.76
2023-02-06T18:12:53.035Z,97.07
2023-02-06T18:15:21.172Z,97.43
2023-02-06T18:17:48.751Z,97.38
2023-02-06T18:20:17.126Z,95.14
